Time;durP1;ratioP1;P1;durP2;ratioP2;P2;SDS_P1;SDS_P2;PMS_P1;PMS_P2;Temp;Humidity;BMP_temperature;BMP_pressure;BME280_temperature;BME280_humidity;BME280_pressure;Samples;Min_cycle;Max_cycle;Signal;HPM_P1;HPM_P2
2024/04/25 00:00:48;;;;;;;7.33;6.63;;;7.10;99.90;;;;;;6693038;26;20478;-58
2024/04/25 00:03:56;;;;;;;6.47;5.80;;;7.10;99.90;;;;;;6691108;26;20484;-59
2024/04/25 00:07:05;;;;;;;6.47;5.87;;;7.10;99.90;;;;;;6700531;26;20474;-58
2024/04/25 00:10:32;;;;;;;6.33;5.50;;;7.00;99.90;;;;;;6679480;26;20991;-59
2024/04/25 00:13:40;;;;;;;9.30;7.60;;;7.00;99.90;;;;;;6635378;26;20534;-59
2024/04/25 00:16:47;;;;;;;8.20;7.53;;;6.90;99.90;;;;;;6708257;26;20668;-58
2024/04/25 00:19:55;;;;;;;6.87;6.20;;;6.90;99.90;;;;;;6655739;26;20559;-58
2024/04/25 00:23:10;;;;;;;8.67;6.80;;;6.90;99.90;;;;;;6614291;26;20461;-58
2024/04/25 00:26:25;;;;;;;8.10;7.10;;;6.90;99.90;;;;;;6626493;26;20836;-58
2024/04/25 00:29:31;;;;;;;6.70;6.07;;;6.90;99.90;;;;;;6626514;26;20542;-59
2024/04/25 00:32:38;;;;;;;9.60;8.30;;;6.90;99.90;;;;;;6644389;26;21225;-59
2024/04/25 00:35:46;;;;;;;9.13;8.10;;;6.80;99.90;;;;;;6669224;26;20562;-59
2024/04/25 00:38:54;;;;;;;9.67;8.10;;;6.80;99.90;;;;;;6668344;26;20480;-59
2024/04/25 00:42:03;;;;;;;8.87;7.87;;;6.60;99.90;;;;;;6669195;26;21185;-59
2024/04/25 00:45:23;;;;;;;8.50;7.60;;;6.50;99.90;;;;;;6668891;26;20521;-59
2024/04/25 00:48:33;;;;;;;9.67;8.60;;;6.40;99.90;;;;;;6668741;26;20543;-59
2024/04/25 00:51:44;;;;;;;10.97;8.40;;;6.30;99.90;;;;;;6668840;26;20448;-59
2024/04/25 00:54:54;;;;;;;10.00;9.00;;;6.40;99.90;;;;;;6674045;26;20477;-59
2024/04/25 00:58:10;;;;;;;9.20;8.13;;;6.50;99.90;;;;;;6669080;26;20475;-59
2024/04/25 01:01:17;;;;;;;8.40;7.50;;;6.50;99.90;;;;;;6663953;26;20468;-59
2024/04/25 01:04:37;;;;;;;8.40;7.47;;;6.60;99.90;;;;;;6637154;26;20534;-59
2024/04/25 01:07:43;;;;;;;8.90;7.63;;;6.70;99.90;;;;;;6630359;26;20481;-59
2024/04/25 01:10:50;;;;;;;9.10;8.30;;;6.80;99.90;;;;;;6661647;26;21370;-59
2024/04/25 01:14:09;;;;;;;8.07;7.37;;;6.90;99.90;;;;;;6683964;26;20963;-59
2024/04/25 01:17:17;;;;;;;8.30;7.10;;;6.90;99.90;;;;;;6650950;26;20521;-59
2024/04/25 01:20:24;;;;;;;10.30;7.43;;;6.90;99.90;;;;;;6730305;26;20470;-59
2024/04/25 01:23:41;;;;;;;8.93;7.10;;;6.90;99.90;;;;;;6757182;26;20502;-59
2024/04/25 01:26:51;;;;;;;7.73;7.13;;;6.90;99.90;;;;;;6754901;26;20481;-59
2024/04/25 01:30:03;;;;;;;7.83;7.03;;;7.00;99.90;;;;;;6758403;26;20469;-59
2024/04/25 01:33:15;;;;;;;8.17;7.37;;;7.10;99.90;;;;;;6756802;26;20513;-59
2024/04/25 01:36:23;;;;;;;7.77;6.97;;;7.10;99.90;;;;;;6756997;26;20663;-59
2024/04/25 01:39:38;;;;;;;9.10;8.20;;;7.20;99.90;;;;;;6756186;26;20812;-59
2024/04/25 01:42:49;;;;;;;7.60;6.90;;;7.20;99.90;;;;;;6757338;26;20596;-58
2024/04/25 01:45:56;;;;;;;8.17;7.40;;;7.30;99.90;;;;;;6756429;26;20458;-59
2024/04/25 01:49:03;;;;;;;7.10;6.33;;;7.30;99.90;;;;;;6757124;26;20465;-58
2024/04/25 01:52:08;;;;;;;7.37;6.67;;;7.40;99.90;;;;;;6730546;26;20547;-59
2024/04/25 01:55:18;;;;;;;7.97;7.27;;;7.40;99.90;;;;;;6700622;26;20560;-60
2024/04/25 01:58:31;;;;;;;7.70;7.00;;;7.50;99.90;;;;;;6711779;26;20702;-59
2024/04/25 02:01:43;;;;;;;8.07;7.33;;;7.40;99.90;;;;;;6711874;26;20490;-58
2024/04/25 02:04:52;;;;;;;8.03;7.23;;;7.40;99.90;;;;;;6711251;26;20578;-59
2024/04/25 02:08:01;;;;;;;8.20;7.40;;;7.40;99.90;;;;;;6711230;26;21410;-59
2024/04/25 02:11:11;;;;;;;7.30;6.60;;;7.40;99.90;;;;;;6712154;26;20455;-59
2024/04/25 02:14:24;;;;;;;9.07;7.37;;;7.40;99.90;;;;;;6711909;26;20451;-60
2024/04/25 02:17:37;;;;;;;8.27;7.47;;;7.40;99.90;;;;;;6712444;26;21016;-59
2024/04/25 02:27:36;;;;;;;8.00;7.13;;;7.20;99.90;;;;;;6756698;26;20555;-59
2024/04/25 02:30:50;;;;;;;8.83;8.03;;;7.20;99.90;;;;;;6755881;26;20513;-59
2024/04/25 02:34:02;;;;;;;7.40;6.77;;;7.20;99.90;;;;;;6755873;26;20576;-60
2024/04/25 02:37:10;;;;;;;9.60;7.60;;;7.20;99.90;;;;;;6756246;26;20461;-60
2024/04/25 02:40:18;;;;;;;7.57;6.87;;;7.20;99.90;;;;;;6755402;26;20679;-58
2024/04/25 02:43:32;;;;;;;9.30;8.07;;;7.10;99.90;;;;;;6755058;26;20509;-59
2024/04/25 02:46:39;;;;;;;7.50;6.80;;;7.10;99.90;;;;;;6760597;26;20460;-58
2024/04/25 02:49:47;;;;;;;10.70;7.67;;;7.10;99.90;;;;;;6707771;26;20478;-58
2024/04/25 02:52:52;;;;;;;7.90;7.20;;;7.10;99.90;;;;;;6711409;26;20527;-60
2024/04/25 02:56:00;;;;;;;8.60;7.70;;;7.10;99.90;;;;;;6742698;26;20580;-59
2024/04/25 02:59:04;;;;;;;7.77;7.00;;;7.00;99.90;;;;;;6754823;26;20549;-58
2024/04/25 03:02:16;;;;;;;9.40;8.13;;;7.00;99.90;;;;;;6753610;26;20891;-59
2024/04/25 03:05:29;;;;;;;8.57;7.77;;;7.00;99.90;;;;;;6770694;26;21192;-59
2024/04/25 03:08:37;;;;;;;9.23;7.63;;;7.00;99.90;;;;;;6709811;26;20530;-58
2024/04/25 03:11:48;;;;;;;8.83;7.50;;;7.00;99.90;;;;;;6710985;26;21108;-58
2024/04/25 03:14:53;;;;;;;8.90;8.00;;;7.00;99.90;;;;;;6710903;26;20586;-58
2024/04/25 03:18:01;;;;;;;8.23;7.50;;;7.00;99.90;;;;;;6711129;26;20474;-60
2024/04/25 03:21:07;;;;;;;9.10;8.30;;;7.00;99.90;;;;;;6726056;26;20520;-59
2024/04/25 03:24:14;;;;;;;8.10;7.37;;;7.00;99.90;;;;;;6755923;26;20445;-59
2024/04/25 03:27:23;;;;;;;9.40;7.90;;;6.90;99.90;;;;;;6760515;26;21175;-59
2024/04/25 03:30:32;;;;;;;9.23;6.97;;;6.90;99.90;;;;;;6758786;26;20469;-59
2024/04/25 03:33:41;;;;;;;6.63;5.93;;;6.90;99.90;;;;;;6758941;26;20461;-59
2024/04/25 03:36:56;;;;;;;7.00;6.30;;;6.90;99.90;;;;;;6758576;26;20630;-59
2024/04/25 03:40:06;;;;;;;5.47;4.97;;;6.90;99.90;;;;;;6759120;26;20505;-59
2024/04/25 03:43:19;;;;;;;6.17;5.60;;;6.80;99.90;;;;;;6760123;26;20533;-59
2024/04/25 03:46:25;;;;;;;7.53;6.03;;;6.80;99.90;;;;;;6714448;26;20510;-59
2024/04/25 03:49:41;;;;;;;5.73;5.20;;;6.80;99.90;;;;;;6713542;26;20534;-59
2024/04/25 03:52:47;;;;;;;9.80;5.93;;;6.80;99.90;;;;;;6714347;26;20462;-59
2024/04/25 03:56:00;;;;;;;5.77;5.27;;;6.80;99.90;;;;;;6714666;26;20512;-59
2024/04/25 03:59:08;;;;;;;5.30;4.80;;;6.80;99.90;;;;;;6713882;26;20593;-59
2024/04/25 04:02:17;;;;;;;5.23;4.77;;;6.80;99.90;;;;;;6762276;26;20582;-60
2024/04/25 04:05:41;;;;;;;7.70;6.87;;;6.80;99.90;;;;;;6713645;26;20918;-59
2024/04/25 04:08:56;;;;;;;7.67;5.57;;;6.80;99.90;;;;;;6712763;26;20586;-60
2024/04/25 04:12:02;;;;;;;6.00;5.43;;;6.80;99.90;;;;;;6714057;26;20482;-59
2024/04/25 04:15:11;;;;;;;5.73;5.30;;;6.90;99.90;;;;;;6713307;26;20513;-59
2024/04/25 04:18:17;;;;;;;5.87;5.30;;;6.90;99.90;;;;;;6742707;26;20517;-59
2024/04/25 04:21:31;;;;;;;8.60;5.67;;;6.90;99.90;;;;;;6758050;26;20472;-60
2024/04/25 04:24:39;;;;;;;7.03;5.87;;;7.00;99.90;;;;;;6757210;26;20453;-59
2024/04/25 04:27:46;;;;;;;6.87;5.40;;;7.00;99.90;;;;;;6758331;26;20461;-58
2024/04/25 04:30:54;;;;;;;6.17;5.57;;;7.00;99.90;;;;;;6757107;26;20537;-60
2024/04/25 04:34:00;;;;;;;5.67;4.93;;;7.10;99.90;;;;;;6757925;26;20465;-60
2024/04/25 04:37:16;;;;;;;6.57;5.97;;;7.20;99.90;;;;;;6719760;26;20536;-61
2024/04/25 04:40:23;;;;;;;6.23;5.00;;;7.30;99.90;;;;;;6739265;26;20550;-60
2024/04/25 04:43:32;;;;;;;5.40;4.90;;;7.30;99.90;;;;;;6747162;26;20559;-60
2024/04/25 04:46:37;;;;;;;6.07;5.23;;;7.50;99.90;;;;;;6733737;26;20841;-60
2024/04/25 04:49:45;;;;;;;5.27;4.70;;;7.60;99.90;;;;;;6753457;26;20477;-60
2024/04/25 04:53:01;;;;;;;6.00;5.40;;;7.70;99.90;;;;;;6757741;26;20525;-59
2024/04/25 04:56:17;;;;;;;4.53;4.13;;;7.80;99.90;;;;;;6757932;26;20453;-60
2024/04/25 04:59:26;;;;;;;8.50;5.67;;;7.90;99.90;;;;;;6782051;26;20704;-59
2024/04/25 05:02:35;;;;;;;11.23;4.53;;;8.10;99.90;;;;;;6757674;26;20596;-59
2024/04/25 05:05:52;;;;;;;5.90;5.40;;;8.20;99.90;;;;;;6757805;26;20855;-61
2024/04/25 05:09:14;;;;;;;6.17;5.60;;;8.40;99.90;;;;;;6756089;26;20564;-60
2024/04/25 05:12:25;;;;;;;6.80;5.80;;;8.70;99.90;;;;;;6756488;26;20457;-60
2024/04/25 05:15:37;;;;;;;6.80;6.20;;;8.90;99.90;;;;;;6712420;26;20519;-60
2024/04/25 05:18:43;;;;;;;5.60;5.10;;;9.10;99.90;;;;;;6741128;26;20485;-60
2024/04/25 05:21:53;;;;;;;6.50;5.80;;;9.20;99.90;;;;;;6749364;26;20485;-60
2024/04/25 05:25:20;;;;;;;4.70;4.20;;;9.30;99.90;;;;;;6757266;26;20474;-60
2024/04/25 05:28:29;;;;;;;6.23;5.63;;;9.50;99.90;;;;;;6756940;26;20557;-59
2024/04/25 05:31:36;;;;;;;5.87;5.10;;;9.50;99.90;;;;;;6756655;26;21423;-60
2024/04/25 05:34:45;;;;;;;5.13;4.63;;;9.60;99.90;;;;;;6756899;26;20473;-60
2024/04/25 05:37:56;;;;;;;6.87;4.80;;;9.60;99.60;;;;;;6721124;26;20471;-59
2024/04/25 05:41:21;;;;;;;5.47;4.97;;;9.70;99.20;;;;;;6712203;26;20467;-60
2024/04/25 05:44:26;;;;;;;5.23;4.73;;;9.70;98.80;;;;;;6709011;26;20463;-60
2024/04/25 05:47:32;;;;;;;6.60;4.90;;;9.90;98.40;;;;;;6709256;26;21286;-61
2024/04/25 05:50:42;;;;;;;6.10;5.60;;;9.90;98.20;;;;;;6710489;26;20479;-59
2024/04/25 05:53:48;;;;;;;7.83;4.30;;;10.00;97.50;;;;;;6731362;26;20993;-59
2024/04/25 05:57:06;;;;;;;4.80;4.30;;;10.10;97.30;;;;;;6740855;26;20473;-59
2024/04/25 06:00:12;;;;;;;5.40;5.00;;;10.20;96.60;;;;;;6731084;26;20514;-60
2024/04/25 06:03:21;;;;;;;4.13;3.73;;;10.50;96.20;;;;;;6736575;26;20959;-60
2024/04/25 06:06:34;;;;;;;6.27;4.70;;;10.60;95.80;;;;;;6741578;26;20481;-59
2024/04/25 06:09:48;;;;;;;4.50;4.20;;;10.90;95.40;;;;;;6742558;26;20473;-59
2024/04/25 06:13:01;;;;;;;4.83;4.00;;;11.00;94.70;;;;;;6747544;26;20485;-59
2024/04/25 06:16:11;;;;;;;6.50;4.90;;;11.20;93.90;;;;;;6730539;26;20566;-60
2024/04/25 06:19:18;;;;;;;6.80;4.00;;;11.20;93.50;;;;;;6692820;26;20510;-59
2024/04/25 06:22:25;;;;;;;5.70;4.53;;;11.30;93.40;;;;;;6710177;26;20573;-60
2024/04/25 06:25:35;;;;;;;5.07;4.67;;;11.40;92.90;;;;;;6716378;26;21096;-60
2024/04/25 06:28:50;;;;;;;7.40;4.23;;;11.50;92.90;;;;;;6750777;26;20485;-59
2024/04/25 06:32:04;;;;;;;4.93;4.10;;;11.60;92.80;;;;;;6745257;26;20932;-59
2024/04/25 06:35:12;;;;;;;5.20;4.70;;;11.60;91.80;;;;;;6753710;26;20516;-59
2024/04/25 06:38:23;;;;;;;4.33;3.90;;;11.70;91.60;;;;;;6714411;26;20471;-59
2024/04/25 06:41:33;;;;;;;4.77;3.90;;;11.70;91.20;;;;;;6744480;26;20576;-59
2024/04/25 06:44:56;;;;;;;6.43;3.80;;;11.80;90.90;;;;;;6730467;26;20471;-60
2024/04/25 06:48:06;;;;;;;6.33;3.70;;;11.90;90.60;;;;;;6745200;26;20560;-59
2024/04/25 06:51:18;;;;;;;6.03;4.00;;;12.00;90.10;;;;;;6776404;26;20553;-59
2024/04/25 06:54:32;;;;;;;4.57;3.40;;;12.10;89.50;;;;;;6724462;26;20474;-60
2024/04/25 06:57:41;;;;;;;3.50;3.20;;;12.30;88.40;;;;;;6741096;26;20538;-58
2024/04/25 07:01:01;;;;;;;2.23;1.70;;;12.20;84.50;;;;;;6757603;26;20474;-60
2024/04/25 07:04:09;;;;;;;2.27;2.17;;;12.20;75.20;;;;;;6757602;26;20764;-60
2024/04/25 07:07:19;;;;;;;4.67;3.37;;;12.30;74.40;;;;;;6727602;26;20963;-60
2024/04/25 07:10:26;;;;;;;5.50;3.07;;;12.40;75.90;;;;;;6714450;26;20477;-60
2024/04/25 07:13:40;;;;;;;9.70;4.90;;;12.50;76.90;;;;;;6714671;26;20554;-60
2024/04/25 07:16:50;;;;;;;6.53;3.87;;;12.60;74.40;;;;;;6751799;26;20604;-60
2024/04/25 07:19:59;;;;;;;4.50;3.23;;;12.60;74.80;;;;;;6758527;26;20477;-60
2024/04/25 07:23:05;;;;;;;4.67;3.30;;;12.80;73.80;;;;;;6759578;26;20678;-60
2024/04/25 07:26:12;;;;;;;4.33;3.50;;;13.00;70.50;;;;;;6761613;26;20680;-61
2024/04/25 07:29:20;;;;;;;2.73;2.53;;;13.40;70.90;;;;;;6737334;26;20486;-61
2024/04/25 07:32:34;;;;;;;3.27;2.97;;;13.70;68.00;;;;;;6740066;26;20461;-60
2024/04/25 07:35:48;;;;;;;4.50;2.53;;;13.90;64.60;;;;;;6759260;26;20476;-60
2024/04/25 07:38:58;;;;;;;3.20;2.90;;;14.10;64.10;;;;;;6759431;26;20807;-60
2024/04/25 07:42:14;;;;;;;2.80;2.47;;;14.20;60.40;;;;;;6758594;26;20465;-59
2024/04/25 07:45:28;;;;;;;2.70;2.20;;;14.40;60.90;;;;;;6758080;26;20457;-59
2024/04/25 07:48:44;;;;;;;2.17;1.97;;;14.50;58.10;;;;;;6785988;26;20477;-57
2024/04/25 07:51:54;;;;;;;3.33;2.50;;;14.40;54.50;;;;;;6759432;26;20870;-59
2024/04/25 07:55:00;;;;;;;3.00;2.70;;;14.10;57.50;;;;;;6757951;26;20469;-58
2024/04/25 07:58:08;;;;;;;4.83;3.30;;;14.00;58.80;;;;;;6726985;26;20465;-59
2024/04/25 08:01:20;;;;;;;4.40;2.90;;;13.50;58.20;;;;;;6758776;26;20472;-58
2024/04/25 08:04:29;;;;;;;3.90;2.87;;;13.60;57.10;;;;;;6747166;26;21314;-57
2024/04/25 08:07:43;;;;;;;3.23;2.93;;;13.60;55.90;;;;;;6758230;26;20469;-55
2024/04/25 08:10:51;;;;;;;2.50;2.30;;;13.50;55.80;;;;;;6757442;26;20961;-59
2024/04/25 08:14:01;;;;;;;6.60;2.93;;;13.60;55.80;;;;;;6759186;26;20469;-59
2024/04/25 08:17:08;;;;;;;2.70;2.50;;;14.00;54.30;;;;;;6758150;26;20835;-61
2024/04/25 08:20:26;;;;;;;2.00;1.80;;;14.50;53.10;;;;;;6756882;26;21097;-58
2024/04/25 08:23:39;;;;;;;1.77;1.67;;;14.30;50.70;;;;;;6757983;26;20969;-58
2024/04/25 08:26:57;;;;;;;2.33;2.13;;;14.10;50.90;;;;;;6750897;26;20561;-59
2024/04/25 08:30:06;;;;;;;1.73;1.63;;;14.50;50.30;;;;;;6714279;26;20479;-59
2024/04/25 08:33:20;;;;;;;2.37;2.17;;;14.80;49.70;;;;;;6750878;26;20537;-59
2024/04/25 08:36:31;;;;;;;2.07;1.97;;;14.40;49.40;;;;;;6755790;26;20870;-59
2024/04/25 08:39:39;;;;;;;3.20;2.33;;;14.50;49.40;;;;;;6711020;26;20483;-59
2024/04/25 08:42:50;;;;;;;2.30;2.10;;;14.60;49.50;;;;;;6740834;26;20464;-59
2024/04/25 08:46:01;;;;;;;2.23;2.03;;;15.20;49.60;;;;;;6802457;26;21008;-59
2024/04/25 08:49:14;;;;;;;2.80;2.60;;;15.40;49.00;;;;;;6800978;26;20492;-60
2024/04/25 08:52:23;;;;;;;3.67;3.37;;;15.40;48.40;;;;;;6801462;26;20463;-59
2024/04/25 08:55:32;;;;;;;4.07;2.93;;;15.80;48.20;;;;;;6768547;26;20465;-58
2024/04/25 08:58:46;;;;;;;2.80;2.50;;;15.30;47.70;;;;;;6757573;26;20493;-58
2024/04/25 09:01:58;;;;;;;2.87;2.67;;;15.20;48.90;;;;;;6757729;26;20461;-59
2024/04/25 09:05:13;;;;;;;2.60;2.40;;;16.20;47.00;;;;;;6758060;26;20557;-59
2024/04/25 09:08:34;;;;;;;3.80;3.27;;;17.10;45.60;;;;;;6756466;26;20461;-60
2024/04/25 09:11:41;;;;;;;4.20;2.80;;;17.90;44.30;;;;;;6757136;26;20566;-60
2024/04/25 09:14:49;;;;;;;4.20;2.80;;;17.90;43.30;;;;;;6758821;26;20937;-61
2024/04/25 09:18:01;;;;;;;3.13;2.80;;;18.60;41.80;;;;;;6759035;26;20266;-62
2024/04/25 09:21:10;;;;;;;3.50;3.20;;;19.10;40.60;;;;;;6748397;26;20679;-62
2024/04/25 09:24:32;;;;;;;7.77;2.97;;;19.20;38.90;;;;;;6712690;26;20311;-62
2024/04/25 09:27:44;;;;;;;3.33;2.93;;;20.00;37.70;;;;;;6718610;26;20232;-62
2024/04/25 09:31:00;;;;;;;2.47;2.27;;;21.00;37.00;;;;;;6757903;26;20239;-62
2024/04/25 09:34:09;;;;;;;3.60;2.90;;;21.50;35.50;;;;;;6757169;26;20567;-61
2024/04/25 09:37:20;;;;;;;2.47;2.27;;;21.70;33.40;;;;;;6740771;26;20228;-63
2024/04/25 09:40:35;;;;;;;3.33;2.00;;;22.60;32.50;;;;;;6793086;26;20850;-62
2024/04/25 09:43:49;;;;;;;3.00;2.80;;;23.90;30.00;;;;;;6802047;26;20219;-61
2024/04/25 09:46:58;;;;;;;2.90;2.60;;;24.70;29.50;;;;;;6802211;26;20715;-62
2024/04/25 09:50:11;;;;;;;3.60;3.27;;;25.30;28.20;;;;;;6792390;26;20312;-61
2024/04/25 09:53:27;;;;;;;4.10;3.03;;;23.10;28.30;;;;;;6756515;26;20271;-61
2024/04/25 09:56:40;;;;;;;3.80;2.90;;;22.30;29.50;;;;;;6757622;26;20228;-63
2024/04/25 10:00:00;;;;;;;3.40;2.60;;;22.20;29.90;;;;;;6758234;26;20267;-61
2024/04/25 10:03:13;;;;;;;3.20;2.13;;;21.10;30.40;;;;;;6757585;26;20325;-62
2024/04/25 10:06:24;;;;;;;3.90;2.23;;;22.50;30.10;;;;;;6757320;26;20325;-62
2024/04/25 10:09:31;;;;;;;2.80;2.60;;;23.50;28.20;;;;;;6756493;26;20299;-61
2024/04/25 10:12:53;;;;;;;2.53;2.33;;;23.10;28.00;;;;;;6756978;26;20224;-62
2024/04/25 10:16:03;;;;;;;3.37;2.30;;;22.60;28.20;;;;;;6756916;26;20220;-61
2024/04/25 10:19:10;;;;;;;2.33;2.13;;;22.10;28.40;;;;;;6725122;26;20237;-63
2024/04/25 10:22:22;;;;;;;1.90;1.80;;;24.10;27.40;;;;;;6708572;26;20228;-63
2024/04/25 10:25:28;;;;;;;2.00;1.90;;;25.40;25.30;;;;;;6739696;26;20382;-63
2024/04/25 10:29:09;;;;;;;2.60;1.67;;;24.80;25.50;;;;;;6756798;26;20289;-62
2024/04/25 10:32:19;;;;;;;2.43;2.20;;;27.60;23.60;;;;;;6761816;26;20215;-62
2024/04/25 10:35:27;;;;;;;3.20;2.13;;;29.30;21.60;;;;;;6775904;26;20771;-62
2024/04/25 10:38:34;;;;;;;2.70;2.50;;;30.00;20.90;;;;;;6805048;26;20234;-63
2024/04/25 10:41:50;;;;;;;2.87;1.80;;;30.00;19.90;;;;;;6804735;26;20806;-64
2024/04/25 10:45:04;;;;;;;1.53;1.43;;;28.10;20.00;;;;;;6800526;26;20234;-62
2024/04/25 10:48:18;;;;;;;2.17;1.43;;;25.70;22.10;;;;;;6763690;26;20524;-62
2024/04/25 10:51:25;;;;;;;1.80;1.60;;;24.50;22.70;;;;;;6756632;26;20358;-62
2024/04/25 10:54:32;;;;;;;2.03;1.43;;;24.40;22.90;;;;;;6755912;26;20271;-62
2024/04/25 10:57:40;;;;;;;1.70;1.40;;;23.30;23.70;;;;;;6756143;26;20235;-62
2024/04/25 11:00:49;;;;;;;1.63;1.53;;;22.50;24.30;;;;;;6756633;26;20236;-61
2024/04/25 11:03:58;;;;;;;2.20;1.60;;;21.50;24.70;;;;;;6755267;26;20267;-61
2024/04/25 11:07:10;;;;;;;1.77;1.67;;;20.70;25.70;;;;;;6755516;26;20228;-61
2024/04/25 11:10:34;;;;;;;2.17;1.33;;;19.50;27.20;;;;;;6754257;26;20240;-60
2024/04/25 11:13:45;;;;;;;1.60;1.40;;;20.10;27.30;;;;;;6748171;26;20288;-59
2024/04/25 11:16:56;;;;;;;1.73;1.30;;;20.70;27.10;;;;;;6710691;26;20276;-58
2024/04/25 11:20:03;;;;;;;2.43;1.50;;;21.30;26.40;;;;;;6636352;26;20441;-60
2024/04/25 11:23:19;;;;;;;2.27;1.20;;;22.20;25.90;;;;;;6711298;26;20267;-59
2024/04/25 11:26:33;;;;;;;1.30;1.20;;;23.90;25.00;;;;;;6710710;26;20733;-60
2024/04/25 11:29:44;;;;;;;2.10;1.23;;;24.20;23.80;;;;;;6709495;26;20539;-60
2024/04/25 11:32:56;;;;;;;1.80;1.10;;;22.40;24.90;;;;;;6710223;26;20687;-59
2024/04/25 11:36:15;;;;;;;1.43;1.23;;;22.20;25.90;;;;;;6710290;26;20284;-60
2024/04/25 11:39:20;;;;;;;2.03;1.50;;;19.60;29.10;;;;;;6710278;26;20241;-61
2024/04/25 11:42:45;;;;;;;1.73;1.40;;;18.90;30.00;;;;;;6710085;26;20238;-61
2024/04/25 11:45:53;;;;;;;2.13;1.10;;;18.20;30.30;;;;;;6711575;26;20233;-59
2024/04/25 11:49:04;;;;;;;3.43;1.10;;;17.70;30.90;;;;;;6713386;26;20237;-60
2024/04/25 11:52:14;;;;;;;2.33;2.13;;;17.80;32.40;;;;;;6714510;26;20686;-59
2024/04/25 11:55:21;;;;;;;19.63;9.97;;;16.60;33.70;;;;;;6714085;26;20241;-59
2024/04/25 11:58:31;;;;;;;2.50;2.30;;;16.90;34.40;;;;;;6714658;26;20474;-61
2024/04/25 12:01:41;;;;;;;1.87;1.77;;;15.90;36.70;;;;;;6714736;26;20526;-59
2024/04/25 12:05:08;;;;;;;1.90;1.80;;;15.60;38.70;;;;;;6713475;26;20916;-60
2024/04/25 12:08:22;;;;;;;2.80;1.90;;;15.60;39.20;;;;;;6681593;26;20557;-60
2024/04/25 12:11:35;;;;;;;1.70;1.60;;;15.40;39.70;;;;;;6686120;26;20596;-59
2024/04/25 12:14:47;;;;;;;1.80;1.50;;;15.50;40.40;;;;;;6669745;26;21117;-58
2024/04/25 12:17:57;;;;;;;1.70;1.33;;;15.40;39.90;;;;;;6696195;26;21037;-59
2024/04/25 12:21:11;;;;;;;1.80;1.43;;;15.30;40.00;;;;;;6714177;26;20641;-59
2024/04/25 12:24:25;;;;;;;1.70;1.60;;;15.10;41.00;;;;;;6714690;26;20908;-60
2024/04/25 12:27:36;;;;;;;2.97;2.03;;;15.40;40.80;;;;;;6724168;26;20537;-58
2024/04/25 12:30:48;;;;;;;1.63;1.53;;;15.60;41.10;;;;;;6758538;26;20580;-59
2024/04/25 12:33:55;;;;;;;1.83;1.50;;;15.50;41.40;;;;;;6758131;26;20509;-59
2024/04/25 12:37:25;;;;;;;2.00;1.80;;;15.20;42.90;;;;;;6758518;26;20458;-60
2024/04/25 12:40:31;;;;;;;1.80;1.70;;;15.10;42.50;;;;;;6724520;26;21097;-60
2024/04/25 12:43:38;;;;;;;1.07;1.03;;;15.20;42.40;;;;;;6712543;26;20542;-60
2024/04/25 12:46:44;;;;;;;1.70;1.60;;;14.60;42.30;;;;;;6712778;26;20459;-59
2024/04/25 12:49:51;;;;;;;1.60;1.50;;;15.40;42.60;;;;;;6712433;26;20769;-59
2024/04/25 12:53:05;;;;;;;1.63;1.53;;;15.90;41.70;;;;;;6713132;26;20823;-59
2024/04/25 12:56:21;;;;;;;1.87;1.67;;;16.10;41.50;;;;;;6712757;26;20657;-59
2024/04/25 12:59:36;;;;;;;1.90;1.73;;;16.60;40.10;;;;;;6711847;26;20486;-59
2024/04/25 13:02:49;;;;;;;3.20;1.80;;;16.50;39.20;;;;;;6712129;26;20944;-59
2024/04/25 13:05:58;;;;;;;1.60;1.50;;;15.70;39.90;;;;;;6685526;26;20549;-59
2024/04/25 13:09:20;;;;;;;1.97;1.30;;;15.10;41.00;;;;;;6697360;26;20595;-59
2024/04/25 13:12:26;;;;;;;2.73;2.27;;;15.60;40.90;;;;;;6709772;26;20520;-60
2024/04/25 13:15:33;;;;;;;1.30;1.20;;;15.60;40.40;;;;;;6690655;26;20527;-59
2024/04/25 13:18:41;;;;;;;1.50;1.40;;;14.40;42.00;;;;;;6706853;26;20527;-59
2024/04/25 13:21:56;;;;;;;3.20;1.80;;;14.30;43.60;;;;;;6643087;26;20490;-57
2024/04/25 13:25:07;;;;;;;2.43;1.40;;;14.20;44.40;;;;;;6666407;26;20484;-58
2024/04/25 13:28:15;;;;;;;2.80;2.07;;;14.00;45.80;;;;;;6660706;26;20827;-59
2024/04/25 13:31:25;;;;;;;2.20;2.00;;;13.30;46.70;;;;;;6652007;26;20464;-57
2024/04/25 13:34:34;;;;;;;2.40;1.53;;;13.60;48.10;;;;;;6648370;26;20881;-59
2024/04/25 13:37:43;;;;;;;1.90;1.70;;;14.10;46.20;;;;;;6648367;26;20528;-58
2024/04/25 13:40:55;;;;;;;2.03;1.60;;;14.30;44.90;;;;;;6648382;26;21336;-58
2024/04/25 13:44:07;;;;;;;1.93;1.73;;;14.20;45.00;;;;;;6631894;26;20538;-60
2024/04/25 13:47:13;;;;;;;1.90;1.70;;;14.60;43.50;;;;;;6666747;26;20843;-59
2024/04/25 13:50:23;;;;;;;1.70;1.50;;;14.50;42.50;;;;;;6658161;26;20475;-59
2024/04/25 13:53:29;;;;;;;2.78;1.40;;;14.00;44.40;;;;;;6648097;26;20512;-58
2024/04/25 13:56:46;;;;;;;2.13;1.60;;;14.30;42.80;;;;;;6647688;26;20246;-59
2024/04/25 13:59:55;;;;;;;1.83;1.60;;;14.20;43.30;;;;;;6665345;26;20390;-59
2024/04/25 14:03:15;;;;;;;1.67;1.57;;;13.90;44.40;;;;;;6652235;26;20273;-58
2024/04/25 14:06:30;;;;;;;2.60;1.70;;;14.50;42.90;;;;;;6641226;26;20492;-56
2024/04/25 14:09:35;;;;;;;1.43;1.33;;;14.40;43.40;;;;;;6658436;26;20536;-58
2024/04/25 14:12:49;;;;;;;2.63;1.30;;;14.00;44.40;;;;;;6634861;26;20856;-58
2024/04/25 14:16:14;;;;;;;1.43;1.33;;;14.20;43.70;;;;;;6665732;26;21314;-61
2024/04/25 14:28:54;;;;;;;2.10;1.47;;;13.80;42.40;;;;;;6695397;26;20460;-60
2024/04/25 14:32:01;;;;;;;1.53;1.37;;;14.10;43.10;;;;;;6650439;26;20615;-59
2024/04/25 14:35:09;;;;;;;1.93;1.40;;;13.50;42.30;;;;;;6656100;26;21467;-62
2024/04/25 14:38:15;;;;;;;1.77;1.67;;;13.60;42.80;;;;;;6659423;26;20566;-62
2024/04/25 14:41:26;;;;;;;1.97;1.50;;;13.70;44.00;;;;;;6661254;26;20531;-60
2024/04/25 14:44:41;;;;;;;2.03;1.70;;;13.70;44.50;;;;;;6643484;26;20484;-59
2024/04/25 14:47:58;;;;;;;1.65;1.55;;;13.60;45.10;;;;;;6614973;26;21092;-58
2024/04/25 14:51:10;;;;;;;2.20;1.50;;;13.90;45.00;;;;;;6618271;26;20594;-56
2024/04/25 14:54:23;;;;;;;6.43;1.10;;;14.00;44.80;;;;;;6636490;26;20480;-59
2024/04/25 14:57:32;;;;;;;1.30;1.20;;;14.00;44.10;;;;;;6640718;26;20473;-59
2024/04/25 15:00:45;;;;;;;1.97;1.20;;;13.90;43.60;;;;;;6633643;26;20477;-59
2024/04/25 15:03:52;;;;;;;1.80;1.60;;;13.80;43.30;;;;;;6617109;26;20535;-59
2024/04/25 15:06:59;;;;;;;1.20;1.10;;;13.80;43.20;;;;;;6610191;26;21180;-59
2024/04/25 15:10:07;;;;;;;1.97;1.60;;;14.00;43.60;;;;;;6617146;26;20530;-59
2024/04/25 15:13:15;;;;;;;2.27;1.40;;;14.00;44.60;;;;;;6617190;26;20798;-59
2024/04/25 15:16:34;;;;;;;2.07;1.97;;;13.60;46.10;;;;;;6617330;26;20588;-58
2024/04/25 15:19:49;;;;;;;2.47;2.20;;;13.40;47.10;;;;;;6617782;26;20478;-59
2024/04/25 15:22:57;;;;;;;2.90;1.90;;;12.70;48.70;;;;;;6620982;26;20469;-59
2024/04/25 15:26:05;;;;;;;2.53;2.33;;;12.80;49.50;;;;;;6624361;26;20480;-59
2024/04/25 15:29:11;;;;;;;2.30;1.47;;;12.20;50.30;;;;;;6649896;26;20486;-60
2024/04/25 15:32:29;;;;;;;1.87;1.60;;;11.40;52.50;;;;;;6620014;26;20921;-58
2024/04/25 15:35:40;;;;;;;3.07;2.00;;;11.40;52.80;;;;;;6620954;26;20526;-59
2024/04/25 15:38:46;;;;;;;2.20;2.10;;;11.90;53.10;;;;;;6620243;26;20558;-59
2024/04/25 15:41:57;;;;;;;2.87;2.20;;;11.90;53.20;;;;;;6627382;26;20529;-60
2024/04/25 15:45:04;;;;;;;2.67;2.47;;;11.50;53.00;;;;;;6648204;26;20800;-60
2024/04/25 15:48:19;;;;;;;2.53;2.13;;;11.70;54.10;;;;;;6642464;26;20475;-58
2024/04/25 15:51:35;;;;;;;3.33;2.03;;;11.60;54.00;;;;;;6640894;26;20474;-59
2024/04/25 15:54:48;;;;;;;2.23;2.03;;;11.70;54.30;;;;;;6638905;26;20469;-59
2024/04/25 15:58:01;;;;;;;2.67;1.83;;;11.50;54.30;;;;;;6630115;26;20589;-58
2024/04/25 16:01:11;;;;;;;2.63;2.43;;;11.60;55.00;;;;;;6621402;26;20481;-59
2024/04/25 16:04:23;;;;;;;2.00;1.90;;;11.80;54.80;;;;;;6621401;26;20453;-59
2024/04/25 16:07:32;;;;;;;2.07;1.97;;;11.70;54.30;;;;;;6620700;26;20904;-58
2024/04/25 16:10:43;;;;;;;2.97;2.30;;;11.20;55.50;;;;;;6629485;26;21015;-59
2024/04/25 16:13:54;;;;;;;2.47;2.27;;;11.20;56.60;;;;;;6651192;26;20464;-59
2024/04/25 16:17:07;;;;;;;2.83;2.23;;;11.20;55.90;;;;;;6635901;26;21418;-59
2024/04/25 16:20:48;;;;;;;2.73;2.50;;;10.70;56.60;;;;;;6661292;26;20472;-60
2024/04/25 16:23:58;;;;;;;2.70;2.50;;;10.70;57.80;;;;;;6661424;26;20476;-58
2024/04/25 16:27:11;;;;;;;2.90;2.70;;;10.50;58.00;;;;;;6622700;26;21195;-58
2024/04/25 16:30:19;;;;;;;3.17;2.90;;;10.00;59.20;;;;;;6700349;26;20458;-57
2024/04/25 16:33:25;;;;;;;2.57;2.37;;;9.80;61.90;;;;;;6742247;26;21034;-60
2024/04/25 16:36:35;;;;;;;3.30;3.00;;;9.90;62.30;;;;;;6736425;26;20461;-59
2024/04/25 16:39:42;;;;;;;2.80;2.60;;;9.60;62.90;;;;;;6724373;26;20496;-57
2024/04/25 16:42:57;;;;;;;3.00;2.80;;;9.60;63.90;;;;;;6733327;26;20471;-57
2024/04/25 16:46:13;;;;;;;9.57;3.03;;;9.50;63.70;;;;;;6745220;26;20678;-58
2024/04/25 16:49:28;;;;;;;3.33;2.63;;;9.60;64.50;;;;;;6751435;26;20549;-58
2024/04/25 16:52:39;;;;;;;2.90;2.60;;;9.70;64.60;;;;;;6748475;26;20521;-58
2024/04/25 16:55:52;;;;;;;2.97;2.70;;;9.50;65.60;;;;;;6748526;26;20482;-58